Terminal Aerodrome Forecast
Issued by NWS

Home | Current Version | Previous Version | Text Only | Print | Product List | Glossary On
Versions: 1 2 3 4 5 6 7 8 9 10 11 12 13 14 15 16 17 18 19 20 21 22 23 24 25 26 27 28 29
203
FTUS43 KLOT 230530
TAFMDW
TAF
KMDW 230530Z 2306/2406 30005KT P6SM SKC
     FM231500 33011G17KT P6SM FEW040
     FM232100 03010KT P6SM SCT050
     FM240400 35003KT P6SM SCT050=

USA.gov is the U.S. government's official web portal to all federal, state and local government web resources and services.